createdAt,value
2023-05-17T00:01:32.039Z,4.20
2023-05-17T00:03:36.058Z,4.45
2023-05-17T00:05:40.229Z,4.10
2023-05-17T00:07:43.800Z,3.55
2023-05-17T00:09:49.043Z,4.63
2023-05-17T00:11:52.894Z,4.13
2023-05-17T00:13:56.973Z,4.45
2023-05-17T00:16:00.857Z,4.00
2023-05-17T00:18:04.969Z,4.50
2023-05-17T00:20:09.795Z,3.80
2023-05-17T00:22:13.510Z,3.38
2023-05-17T00:24:17.385Z,3.90
2023-05-17T00:26:22.800Z,4.07
2023-05-17T00:28:26.594Z,4.38
2023-05-17T00:30:30.304Z,4.22
2023-05-17T00:32:34.023Z,4.05
2023-05-17T00:34:37.864Z,3.88
2023-05-17T00:36:41.423Z,3.90
2023-05-17T00:38:45.896Z,3.75
2023-05-17T00:40:51.112Z,5.15
2023-05-17T00:42:56.421Z,3.05
2023-05-17T00:44:59.985Z,4.18
2023-05-17T00:47:03.836Z,4.20
2023-05-17T00:49:07.562Z,4.43
2023-05-17T00:51:11.786Z,4.35
2023-05-17T00:53:16.643Z,4.32
2023-05-17T00:55:20.892Z,3.60
2023-05-17T00:57:24.650Z,4.00
2023-05-17T00:59:31.165Z,4.43
2023-05-17T01:01:36.665Z,4.03
2023-05-17T01:03:40.800Z,3.75
2023-05-17T01:05:44.845Z,4.30
2023-05-17T01:07:48.678Z,4.68
2023-05-17T01:09:53.202Z,4.10
2023-05-17T01:12:17.294Z,4.20
2023-05-17T01:14:36.632Z,3.55
2023-05-17T01:16:45.884Z,5.22
2023-05-17T01:18:58.011Z,4.35
2023-05-17T01:21:03.339Z,4.07
2023-05-17T01:23:29.492Z,3.90
2023-05-17T01:25:47.870Z,4.38
2023-05-17T01:27:55.830Z,3.95
2023-05-17T01:30:00.585Z,3.80
2023-05-17T01:32:04.995Z,4.00
2023-05-17T01:34:09.496Z,4.03
2023-05-17T01:36:13.306Z,3.88
2023-05-17T01:38:18.381Z,4.15
2023-05-17T01:40:22.963Z,3.78
2023-05-17T01:42:32.514Z,4.00
2023-05-17T01:44:44.869Z,4.03
2023-05-17T01:46:50.132Z,4.30
2023-05-17T01:49:02.154Z,4.60
2023-05-17T01:51:06.951Z,3.92
2023-05-17T01:53:13.513Z,2.97
2023-05-17T01:55:22.698Z,3.72
2023-05-17T01:57:31.003Z,3.38
2023-05-17T01:59:36.541Z,4.35
2023-05-17T02:01:43.281Z,3.78
2023-05-17T02:03:49.737Z,3.83
2023-05-17T02:05:53.975Z,4.43
2023-05-17T02:07:58.013Z,3.63
2023-05-17T02:10:01.936Z,4.25
2023-05-17T02:12:06.283Z,3.65
2023-05-17T02:14:11.201Z,3.80
2023-05-17T02:16:14.747Z,3.63
2023-05-17T02:18:22.270Z,4.63
2023-05-17T02:20:26.517Z,4.03
2023-05-17T02:22:30.099Z,3.58
2023-05-17T02:24:34.733Z,3.90
2023-05-17T02:26:38.545Z,4.13
2023-05-17T02:28:42.228Z,4.28
2023-05-17T02:30:46.469Z,3.17
2023-05-17T02:32:50.451Z,3.42
2023-05-17T02:34:55.660Z,4.20
2023-05-17T02:37:00.296Z,3.90
2023-05-17T02:39:03.989Z,3.17
2023-05-17T02:41:08.674Z,3.50
2023-05-17T02:43:12.328Z,3.20
2023-05-17T02:45:15.990Z,3.97
2023-05-17T02:47:21.365Z,3.85
2023-05-17T02:49:25.439Z,3.20
2023-05-17T02:51:31.487Z,3.35
2023-05-17T02:53:35.258Z,3.67
2023-05-17T02:55:39.536Z,3.13
2023-05-17T02:57:43.548Z,3.70
2023-05-17T02:59:48.026Z,4.22
2023-05-17T03:01:52.057Z,4.10
2023-05-17T03:03:56.415Z,3.83
2023-05-17T03:06:02.982Z,3.90
2023-05-17T03:08:08.375Z,3.50
2023-05-17T03:10:12.168Z,3.42
2023-05-17T03:12:19.817Z,3.38
2023-05-17T03:14:23.834Z,3.80
2023-05-17T03:16:27.253Z,3.83
2023-05-17T03:18:31.047Z,3.65
2023-05-17T03:20:34.933Z,3.20
2023-05-17T03:22:38.367Z,3.65
2023-05-17T03:24:43.330Z,3.50
2023-05-17T03:28:50.437Z,3.58
2023-05-17T03:30:55.664Z,3.35
2023-05-17T03:32:59.325Z,3.08
2023-05-17T03:35:02.820Z,3.40
2023-05-17T03:37:06.803Z,3.60
2023-05-17T03:39:10.371Z,3.38
2023-05-17T03:41:17.541Z,3.90
2023-05-17T03:43:21.445Z,4.15
2023-05-17T03:45:25.748Z,3.13
2023-05-17T03:47:29.272Z,3.63
2023-05-17T03:49:32.830Z,4.38
2023-05-17T03:51:36.370Z,4.20
2023-05-17T03:53:43.480Z,3.67
2023-05-17T03:55:47.301Z,3.72
2023-05-17T03:57:53.381Z,4.35
2023-05-17T03:59:56.894Z,3.28
2023-05-17T04:02:00.283Z,4.18
2023-05-17T04:04:04.611Z,3.08
2023-05-17T04:06:10.358Z,3.67
2023-05-17T04:08:15.324Z,3.88
2023-05-17T04:10:18.728Z,3.85
2023-05-17T04:12:22.615Z,4.07
2023-05-17T04:14:27.416Z,3.42
2023-05-17T04:16:32.350Z,3.00
2023-05-17T04:18:37.316Z,3.30
2023-05-17T04:20:40.970Z,3.47
2023-05-17T04:22:44.383Z,3.55
2023-05-17T04:24:48.540Z,4.00
2023-05-17T04:26:52.027Z,3.28
2023-05-17T04:29:00.099Z,3.80
2023-05-17T04:31:08.432Z,3.33
2023-05-17T04:33:14.087Z,3.35
2023-05-17T04:35:17.860Z,3.85
2023-05-17T04:37:24.360Z,4.50
2023-05-17T04:39:31.420Z,3.60
2023-05-17T04:41:35.130Z,3.75
2023-05-17T04:43:42.158Z,4.43
2023-05-17T04:45:57.954Z,4.20
2023-05-17T04:48:03.047Z,4.13
2023-05-17T04:50:07.861Z,3.72
2023-05-17T04:52:12.594Z,3.20
2023-05-17T04:54:16.070Z,3.70
2023-05-17T04:56:20.124Z,3.20
2023-05-17T04:58:24.367Z,3.60
2023-05-17T05:00:31.539Z,3.38
2023-05-17T05:02:40.374Z,3.53
2023-05-17T05:06:50.263Z,4.22
2023-05-17T05:08:54.563Z,4.65
2023-05-17T05:10:58.313Z,3.30
2023-05-17T05:13:02.282Z,3.55
2023-05-17T05:15:06.611Z,4.30
2023-05-17T05:17:12.114Z,3.88
2023-05-17T05:19:17.259Z,4.43
2023-05-17T05:21:23.103Z,4.53
2023-05-17T05:23:26.715Z,4.68
2023-05-17T05:25:30.832Z,3.95
2023-05-17T05:27:35.689Z,4.32
2023-05-17T05:29:39.076Z,4.28
2023-05-17T05:31:43.196Z,4.32
2023-05-17T05:33:47.581Z,5.03
2023-05-17T05:35:51.134Z,4.13
2023-05-17T05:37:56.098Z,4.15
2023-05-17T05:40:00.133Z,4.32
2023-05-17T05:42:03.567Z,4.80
2023-05-17T05:44:07.578Z,4.00
2023-05-17T05:46:12.007Z,4.47
2023-05-17T05:48:17.022Z,4.50
2023-05-17T05:50:20.860Z,4.63
2023-05-17T05:52:25.600Z,4.50
2023-05-17T05:54:30.438Z,5.20
2023-05-17T05:56:34.908Z,5.03
2023-05-17T05:58:38.642Z,5.10
2023-05-17T06:00:43.318Z,4.57
2023-05-17T06:02:47.142Z,4.90
2023-05-17T06:04:50.690Z,5.30
2023-05-17T06:06:56.318Z,4.93
2023-05-17T06:08:59.875Z,4.28
2023-05-17T06:11:04.772Z,4.57
2023-05-17T06:13:08.186Z,5.05
2023-05-17T06:15:12.373Z,5.10
2023-05-17T06:17:15.857Z,5.05
2023-05-17T06:19:20.627Z,4.95
2023-05-17T06:23:27.293Z,5.22
2023-05-17T06:25:30.738Z,4.68
2023-05-17T06:27:35.675Z,5.28
2023-05-17T06:29:39.168Z,5.35
2023-05-17T06:31:42.510Z,4.90
2023-05-17T06:33:45.946Z,4.40
2023-05-17T06:37:57.931Z,5.30
2023-05-17T06:40:14.697Z,5.65
2023-05-17T06:42:19.611Z,5.53
2023-05-17T06:44:25.178Z,5.38
2023-05-17T06:46:28.611Z,5.15
2023-05-17T06:48:32.235Z,4.82
2023-05-17T06:50:36.320Z,5.28
2023-05-17T06:52:39.817Z,5.82
2023-05-17T06:54:43.134Z,5.95
2023-05-17T06:56:46.511Z,5.00
2023-05-17T06:58:50.106Z,5.88
2023-05-17T07:00:54.964Z,5.82
2023-05-17T07:07:05.457Z,5.68
2023-05-17T07:09:09.472Z,5.88
2023-05-17T07:11:13.388Z,5.32
2023-05-17T07:13:18.300Z,5.80
2023-05-17T07:15:22.449Z,5.10
2023-05-17T07:17:28.514Z,5.72
2023-05-17T07:19:33.484Z,5.97
2023-05-17T07:21:38.285Z,6.10
2023-05-17T07:23:43.633Z,5.13
2023-05-17T07:25:47.771Z,5.35
2023-05-17T07:27:52.388Z,5.78
2023-05-17T07:32:00.070Z,5.88
2023-05-17T07:34:05.277Z,5.47
2023-05-17T07:36:09.613Z,5.68
2023-05-17T07:38:13.815Z,5.65
2023-05-17T07:40:24.144Z,5.22
2023-05-17T07:42:28.093Z,5.05
2023-05-17T07:44:31.605Z,5.85
2023-05-17T07:46:35.630Z,5.55
2023-05-17T07:48:39.483Z,5.15
2023-05-17T07:50:47.287Z,5.72
2023-05-17T07:52:53.611Z,4.80
2023-05-17T07:54:57.434Z,4.93
2023-05-17T07:57:01.323Z,7.05
2023-05-17T07:59:06.111Z,5.78
2023-05-17T08:01:10.498Z,6.07
2023-05-17T08:03:17.087Z,5.68
2023-05-17T08:05:21.219Z,5.30
2023-05-17T08:07:30.451Z,5.43
2023-05-17T08:09:34.318Z,5.10
2023-05-17T08:11:42.097Z,4.95
2023-05-17T08:13:46.000Z,5.25
2023-05-17T08:15:51.559Z,4.57
2023-05-17T08:17:55.875Z,5.20
2023-05-17T08:19:59.913Z,5.47
2023-05-17T08:22:03.887Z,5.03
2023-05-17T08:24:09.547Z,4.95
2023-05-17T08:26:14.115Z,5.18
2023-05-17T08:28:18.248Z,5.30
2023-05-17T08:32:32.309Z,5.47
2023-05-17T08:34:36.960Z,5.63
2023-05-17T08:36:43.484Z,5.25
2023-05-17T08:38:47.239Z,5.13
2023-05-17T08:40:56.362Z,5.00
2023-05-17T08:43:00.665Z,4.95
2023-05-17T08:45:04.419Z,4.97
2023-05-17T08:47:12.369Z,4.75
2023-05-17T08:49:16.982Z,5.07
2023-05-17T08:51:21.439Z,4.82
2023-05-17T08:53:26.809Z,4.30
2023-05-17T08:55:33.336Z,4.68
2023-05-17T08:57:40.647Z,4.28
2023-05-17T08:59:45.469Z,3.28
2023-05-17T09:01:51.203Z,3.70
2023-05-17T09:03:55.234Z,3.13
2023-05-17T09:06:00.365Z,3.15
2023-05-17T09:08:04.220Z,3.03
2023-05-17T09:10:09.046Z,2.97
2023-05-17T09:12:13.319Z,3.45
2023-05-17T09:14:18.826Z,3.42
2023-05-17T09:16:22.745Z,3.13
2023-05-17T09:18:33.251Z,2.75
2023-05-17T09:20:39.174Z,3.13
2023-05-17T09:22:42.863Z,3.30
2023-05-17T09:24:47.097Z,3.55
2023-05-17T09:26:50.905Z,3.55
2023-05-17T09:28:54.758Z,3.33
2023-05-17T09:31:06.954Z,3.28
2023-05-17T09:33:13.966Z,3.30
2023-05-17T09:35:20.732Z,3.58
2023-05-17T09:37:26.293Z,3.22
2023-05-17T09:39:29.985Z,3.15
2023-05-17T09:41:34.298Z,3.58
2023-05-17T09:43:38.632Z,3.00
2023-05-17T09:45:42.310Z,3.05
2023-05-17T09:47:48.438Z,3.42
2023-05-17T09:49:52.622Z,4.68
2023-05-17T09:51:57.304Z,2.83
2023-05-17T09:54:01.437Z,3.60
2023-05-17T09:56:07.960Z,2.80
2023-05-17T09:58:11.946Z,3.00
2023-05-17T10:00:19.914Z,3.25
2023-05-17T10:02:28.066Z,3.33
2023-05-17T10:04:38.038Z,3.40
2023-05-17T10:06:51.464Z,3.25
2023-05-17T10:08:59.542Z,3.60
2023-05-17T10:11:09.142Z,3.45
2023-05-17T10:13:15.785Z,3.53
2023-05-17T10:15:20.048Z,3.25
2023-05-17T10:17:24.927Z,3.45
2023-05-17T10:19:29.323Z,3.20
2023-05-17T10:21:35.039Z,3.25
2023-05-17T10:23:40.711Z,3.38
2023-05-17T10:25:45.131Z,3.45
2023-05-17T10:27:50.352Z,3.85
2023-05-17T10:29:55.531Z,3.20
2023-05-17T10:32:00.499Z,3.20
2023-05-17T10:34:06.045Z,3.50
2023-05-17T10:36:11.344Z,2.78
2023-05-17T10:38:16.813Z,3.30
2023-05-17T10:40:23.023Z,3.38
2023-05-17T10:42:29.573Z,3.00
2023-05-17T10:44:35.099Z,3.70
2023-05-17T10:46:38.747Z,3.10
2023-05-17T10:48:42.945Z,3.15
2023-05-17T10:51:00.658Z,2.70
2023-05-17T10:53:10.823Z,3.47
2023-05-17T10:55:19.644Z,2.90
2023-05-17T10:57:46.808Z,3.10
2023-05-17T11:00:01.874Z,3.40
2023-05-17T11:02:07.580Z,3.38
2023-05-17T11:04:23.152Z,2.95
2023-05-17T11:06:27.017Z,2.83
2023-05-17T11:08:32.839Z,3.80
2023-05-17T11:10:40.140Z,3.10
2023-05-17T11:12:46.189Z,3.40
2023-05-17T11:14:53.718Z,3.13
2023-05-17T11:16:58.737Z,3.50
2023-05-17T11:19:10.455Z,3.35
2023-05-17T11:21:16.496Z,4.15
2023-05-17T11:23:22.948Z,3.67
2023-05-17T11:25:30.013Z,3.45
2023-05-17T11:27:39.506Z,3.58
2023-05-17T11:29:44.028Z,4.03
2023-05-17T11:31:52.812Z,3.60
2023-05-17T11:33:57.113Z,4.40
2023-05-17T11:36:07.074Z,3.97
2023-05-17T11:38:19.500Z,4.05
2023-05-17T11:40:28.378Z,4.32
2023-05-17T11:42:32.998Z,4.15
2023-05-17T11:44:39.975Z,3.42
2023-05-17T11:46:44.802Z,3.83
2023-05-17T11:50:54.288Z,3.78
2023-05-17T11:53:00.426Z,3.50
2023-05-17T11:55:06.755Z,3.95
2023-05-17T11:57:11.172Z,3.78
2023-05-17T11:59:21.233Z,4.20
2023-05-17T12:01:26.399Z,3.85
2023-05-17T12:03:31.871Z,3.85
2023-05-17T12:05:35.734Z,3.53
2023-05-17T12:07:39.921Z,3.50
2023-05-17T12:09:48.008Z,3.78
2023-05-17T12:11:51.773Z,3.83
2023-05-17T12:13:56.022Z,4.88
2023-05-17T12:16:02.645Z,3.90
2023-05-17T12:18:08.044Z,3.60
2023-05-17T12:20:12.838Z,3.13
2023-05-17T12:26:25.533Z,3.58
2023-05-17T12:28:29.376Z,4.13
2023-05-17T12:30:33.145Z,3.70
2023-05-17T12:32:36.978Z,3.95
2023-05-17T12:34:42.491Z,3.95
2023-05-17T12:36:47.184Z,3.45
2023-05-17T12:40:55.640Z,3.90
2023-05-17T12:43:05.194Z,4.03
2023-05-17T12:45:13.276Z,4.00
2023-05-17T12:47:18.127Z,3.45
2023-05-17T12:49:23.572Z,3.97
2023-05-17T12:51:29.123Z,3.85
2023-05-17T12:53:37.893Z,4.00
2023-05-17T12:55:42.180Z,3.97
2023-05-17T12:57:52.357Z,4.50
2023-05-17T12:59:56.487Z,4.10
2023-05-17T13:02:01.397Z,3.63
2023-05-17T13:04:05.738Z,3.95
2023-05-17T13:06:11.568Z,4.25
2023-05-17T13:08:22.886Z,3.70
2023-05-17T13:10:28.672Z,4.00
2023-05-17T13:12:32.895Z,3.75
2023-05-17T13:14:45.307Z,3.95
2023-05-17T13:16:50.146Z,3.80
2023-05-17T13:18:55.917Z,4.35
2023-05-17T13:20:59.784Z,4.05
2023-05-17T13:23:03.898Z,3.58
2023-05-17T13:25:09.827Z,4.30
2023-05-17T13:27:14.056Z,3.72
2023-05-17T13:29:20.706Z,3.88
2023-05-17T13:31:29.170Z,3.85
2023-05-17T13:33:32.979Z,3.67
2023-05-17T13:35:37.854Z,3.97
2023-05-17T13:39:45.389Z,3.92
2023-05-17T13:41:50.594Z,4.05
2023-05-17T13:43:54.386Z,4.22
2023-05-17T13:45:59.243Z,3.90
2023-05-17T13:48:03.079Z,4.45
2023-05-17T13:50:08.663Z,3.95
2023-05-17T13:52:13.636Z,4.07
2023-05-17T13:56:22.473Z,3.63
2023-05-17T13:58:27.696Z,3.83
2023-05-17T14:00:31.493Z,4.20
2023-05-17T14:02:35.496Z,3.97
2023-05-17T14:04:39.717Z,4.18
2023-05-17T14:06:43.737Z,4.43
2023-05-17T14:08:47.754Z,4.63
2023-05-17T14:10:51.694Z,4.22
2023-05-17T14:12:55.186Z,4.45
2023-05-17T14:15:00.626Z,4.40
2023-05-17T14:17:05.656Z,4.18
2023-05-17T14:19:11.336Z,4.32
2023-05-17T14:21:16.764Z,4.40
2023-05-17T14:23:21.616Z,4.20
2023-05-17T14:25:27.499Z,4.22
2023-05-17T14:27:32.604Z,3.97
2023-05-17T14:29:38.915Z,4.32
2023-05-17T14:31:47.090Z,4.38
2023-05-17T14:33:52.927Z,4.15
2023-05-17T14:35:59.113Z,4.32
2023-05-17T14:38:04.588Z,3.95
2023-05-17T14:40:10.552Z,3.70
2023-05-17T14:42:15.983Z,3.38
2023-05-17T14:44:24.137Z,3.83
2023-05-17T14:46:29.592Z,3.90
2023-05-17T14:48:37.413Z,3.72
2023-05-17T14:50:43.840Z,3.45
2023-05-17T14:52:49.738Z,4.00
2023-05-17T14:54:55.973Z,4.00
2023-05-17T14:57:00.989Z,4.00
2023-05-17T14:59:06.509Z,4.03
2023-05-17T15:01:18.499Z,3.67
2023-05-17T15:03:23.595Z,3.90
2023-05-17T15:07:36.558Z,4.00
2023-05-17T15:09:41.944Z,3.50
2023-05-17T15:11:46.289Z,4.03
2023-05-17T15:13:50.943Z,3.60
2023-05-17T15:15:55.797Z,4.40
2023-05-17T15:18:01.459Z,4.25
2023-05-17T15:20:07.139Z,4.03
2023-05-17T15:22:14.360Z,4.30
2023-05-17T15:24:18.611Z,4.38
2023-05-17T15:26:25.365Z,4.50
2023-05-17T15:28:30.222Z,3.75
2023-05-17T15:30:34.807Z,4.20
2023-05-17T15:32:38.907Z,3.67
2023-05-17T15:34:42.697Z,4.43
2023-05-17T15:36:49.370Z,4.15
2023-05-17T15:38:55.724Z,4.15
2023-05-17T15:41:05.247Z,3.78
2023-05-17T15:43:09.137Z,4.10
2023-05-17T15:45:13.217Z,3.55
2023-05-17T15:47:16.927Z,4.25
2023-05-17T15:49:21.040Z,4.13
2023-05-17T15:51:25.090Z,3.63
2023-05-17T15:53:30.623Z,3.72
2023-05-17T15:55:36.171Z,3.85
2023-05-17T15:57:40.321Z,3.60
2023-05-17T15:59:44.603Z,4.25
2023-05-17T16:01:48.575Z,4.40
2023-05-17T16:03:52.791Z,4.35
2023-05-17T16:05:57.048Z,4.30
2023-05-17T16:08:01.759Z,3.85
2023-05-17T16:12:12.905Z,4.13
2023-05-17T16:14:18.308Z,3.83
2023-05-17T16:16:22.421Z,4.18
2023-05-17T16:18:27.220Z,4.20
2023-05-17T16:20:31.637Z,4.13
2023-05-17T16:22:36.332Z,4.25
2023-05-17T16:24:40.765Z,4.57
2023-05-17T16:26:47.078Z,4.20
2023-05-17T16:28:52.679Z,4.03
2023-05-17T16:30:57.133Z,4.65
2023-05-17T16:33:04.977Z,4.00
2023-05-17T16:35:12.650Z,3.97
2023-05-17T16:37:17.682Z,4.10
2023-05-17T16:39:22.039Z,4.95
2023-05-17T16:41:29.133Z,4.43
2023-05-17T16:43:33.018Z,4.25
2023-05-17T16:45:39.365Z,6.70
2023-05-17T16:47:43.829Z,7.88
2023-05-17T16:49:47.855Z,4.07
2023-05-17T16:51:52.484Z,4.00
2023-05-17T16:56:00.365Z,4.13
2023-05-17T16:58:05.189Z,4.45
2023-05-17T17:00:11.973Z,3.92
2023-05-17T17:02:18.234Z,3.80
2023-05-17T17:04:25.268Z,3.88
2023-05-17T17:06:30.375Z,4.28
2023-05-17T17:10:38.836Z,3.90
2023-05-17T17:12:43.313Z,3.22
2023-05-17T17:14:47.469Z,4.10
2023-05-17T17:16:51.546Z,4.60
2023-05-17T17:18:57.496Z,4.18
2023-05-17T17:21:04.793Z,4.13
2023-05-17T17:23:10.608Z,4.13
2023-05-17T17:25:14.860Z,4.05
2023-05-17T17:27:19.947Z,4.15
2023-05-17T17:29:26.536Z,4.22
2023-05-17T17:31:30.698Z,3.75
2023-05-17T17:33:35.124Z,4.22
2023-05-17T17:35:42.074Z,3.97
2023-05-17T17:37:45.912Z,4.03
2023-05-17T17:39:49.877Z,4.22
2023-05-17T17:41:53.896Z,4.10
2023-05-17T17:43:57.855Z,4.90
2023-05-17T17:46:02.337Z,4.45
2023-05-17T17:50:11.012Z,4.20
2023-05-17T17:54:19.454Z,3.95
2023-05-17T17:56:25.617Z,4.13
2023-05-17T17:58:31.297Z,3.83
2023-05-17T18:00:35.117Z,3.92
2023-05-17T18:02:39.333Z,4.93
2023-05-17T18:04:43.186Z,4.20
2023-05-17T18:06:48.119Z,4.47
2023-05-17T18:08:54.197Z,4.03
2023-05-17T18:10:59.336Z,3.97
2023-05-17T18:13:03.740Z,4.10
2023-05-17T18:15:08.641Z,4.28
2023-05-17T18:17:12.485Z,4.00
2023-05-17T18:19:16.417Z,4.10
2023-05-17T18:21:20.491Z,4.35
2023-05-17T18:23:24.589Z,3.97
2023-05-17T18:25:30.573Z,3.60
2023-05-17T18:27:35.405Z,4.15
2023-05-17T18:31:42.721Z,3.35
2023-05-17T18:33:47.108Z,3.13
2023-05-17T18:35:52.069Z,3.65
2023-05-17T18:37:55.743Z,3.38
2023-05-17T18:40:02.284Z,3.10
2023-05-17T18:42:08.210Z,3.00
2023-05-17T18:44:14.392Z,3.80
2023-05-17T18:46:19.237Z,3.33
2023-05-17T18:48:23.712Z,3.28
2023-05-17T18:50:28.690Z,3.60
2023-05-17T18:52:33.666Z,3.08
2023-05-17T18:54:40.935Z,3.15
2023-05-17T18:56:45.293Z,3.20
2023-05-17T18:58:52.323Z,3.53
2023-05-17T19:00:56.607Z,3.88
2023-05-17T19:03:00.378Z,3.88
2023-05-17T19:05:06.039Z,3.55
2023-05-17T19:07:10.185Z,3.45
2023-05-17T19:09:13.985Z,4.22
2023-05-17T19:11:18.066Z,3.38
2023-05-17T19:13:22.109Z,3.47
2023-05-17T19:15:27.841Z,3.60
2023-05-17T19:17:32.736Z,3.45
2023-05-17T19:19:37.288Z,2.60
2023-05-17T19:21:41.103Z,2.95
2023-05-17T19:23:45.983Z,3.00
2023-05-17T19:27:54.320Z,3.22
2023-05-17T19:29:58.445Z,3.15
2023-05-17T19:32:05.080Z,3.03
2023-05-17T19:34:09.146Z,3.53
2023-05-17T19:36:13.512Z,3.25
2023-05-17T19:38:20.633Z,3.72
2023-05-17T19:40:24.588Z,3.58
2023-05-17T19:42:31.884Z,3.28
2023-05-17T19:44:39.570Z,3.33
2023-05-17T19:46:43.482Z,3.38
2023-05-17T19:49:10.277Z,3.65
2023-05-17T19:51:14.726Z,3.33
2023-05-17T19:53:19.103Z,3.22
2023-05-17T19:55:26.518Z,3.38
2023-05-17T19:57:31.070Z,3.17
2023-05-17T19:59:34.884Z,3.47
2023-05-17T20:01:38.752Z,3.17
2023-05-17T20:03:43.006Z,3.20
2023-05-17T20:05:48.587Z,2.70
2023-05-17T20:07:52.372Z,2.90
2023-05-17T20:09:57.604Z,3.75
2023-05-17T20:12:03.337Z,2.70
2023-05-17T20:14:07.702Z,3.17
2023-05-17T20:16:13.770Z,3.30
2023-05-17T20:18:18.127Z,3.38
2023-05-17T20:20:22.835Z,3.25
2023-05-17T20:22:28.320Z,4.05
2023-05-17T20:24:34.991Z,3.53
2023-05-17T20:26:39.826Z,3.17
2023-05-17T20:30:48.719Z,2.60
2023-05-17T20:34:58.238Z,2.90
2023-05-17T20:37:05.150Z,3.13
2023-05-17T20:39:15.420Z,2.50
2023-05-17T20:41:19.693Z,2.92
2023-05-17T20:43:29.035Z,3.30
2023-05-17T20:45:34.454Z,3.22
2023-05-17T20:47:39.104Z,3.22
2023-05-17T20:49:44.686Z,3.22
2023-05-17T20:51:54.713Z,3.08
2023-05-17T20:54:00.563Z,2.63
2023-05-17T20:56:14.414Z,4.22
2023-05-17T20:58:19.524Z,3.20
2023-05-17T21:00:26.475Z,3.15
2023-05-17T21:02:31.222Z,2.90
2023-05-17T21:04:37.576Z,2.83
2023-05-17T21:06:44.908Z,3.03
2023-05-17T21:08:48.900Z,3.47
2023-05-17T21:10:53.734Z,3.03
2023-05-17T21:13:02.352Z,2.72
2023-05-17T21:15:15.943Z,2.63
2023-05-17T21:17:21.391Z,3.15
2023-05-17T21:19:26.174Z,3.20
2023-05-17T21:21:31.294Z,3.30
2023-05-17T21:23:35.780Z,3.03
2023-05-17T21:25:40.998Z,2.58
2023-05-17T21:27:45.935Z,2.83
2023-05-17T21:29:51.767Z,2.60
2023-05-17T21:31:56.352Z,2.50
2023-05-17T21:36:07.857Z,2.80
2023-05-17T21:38:13.926Z,2.30
2023-05-17T21:40:18.624Z,2.78
2023-05-17T21:42:24.414Z,2.35
2023-05-17T21:44:29.869Z,2.60
2023-05-17T21:46:35.896Z,2.70
2023-05-17T21:48:40.644Z,2.83
2023-05-17T21:50:45.600Z,2.83
2023-05-17T21:52:51.053Z,2.65
2023-05-17T21:54:55.455Z,2.50
2023-05-17T21:57:00.366Z,2.95
2023-05-17T21:59:05.225Z,2.13
2023-05-17T22:01:10.142Z,2.90
2023-05-17T22:03:16.537Z,2.92
2023-05-17T22:05:21.160Z,2.67
2023-05-17T22:07:25.734Z,2.45
2023-05-17T22:09:30.525Z,2.40
2023-05-17T22:13:43.784Z,2.53
2023-05-17T22:15:48.933Z,2.60
2023-05-17T22:17:54.739Z,2.55
2023-05-17T22:20:04.628Z,2.42
2023-05-17T22:22:09.551Z,2.65
2023-05-17T22:24:20.404Z,2.28
2023-05-17T22:26:25.237Z,2.40
2023-05-17T22:30:34.727Z,2.67
2023-05-17T22:32:40.500Z,2.53
2023-05-17T22:34:45.610Z,2.90
2023-05-17T22:36:52.637Z,2.50
2023-05-17T22:38:58.151Z,2.53
2023-05-17T22:41:02.651Z,2.47
2023-05-17T22:43:09.241Z,2.40
2023-05-17T22:45:14.691Z,2.65
2023-05-17T22:47:23.356Z,2.47
2023-05-17T22:49:27.817Z,3.05
2023-05-17T22:51:35.420Z,2.65
2023-05-17T22:53:41.787Z,2.90
2023-05-17T22:55:49.267Z,2.50
2023-05-17T22:57:54.245Z,2.33
2023-05-17T22:59:58.684Z,3.08
2023-05-17T23:02:04.052Z,2.70
2023-05-17T23:04:08.936Z,2.58
2023-05-17T23:08:17.624Z,2.90
2023-05-17T23:10:23.974Z,2.88
2023-05-17T23:12:28.652Z,2.72
2023-05-17T23:14:33.318Z,2.72
2023-05-17T23:16:38.261Z,2.90
2023-05-17T23:20:49.193Z,2.50
2023-05-17T23:22:54.319Z,2.97
2023-05-17T23:24:59.688Z,2.80
2023-05-17T23:27:10.381Z,3.60
2023-05-17T23:29:15.705Z,2.47
2023-05-17T23:31:22.289Z,3.28
2023-05-17T23:33:31.467Z,2.92
2023-05-17T23:35:36.216Z,2.67
2023-05-17T23:37:40.617Z,2.58
2023-05-17T23:39:44.869Z,2.90
2023-05-17T23:41:49.189Z,2.63
2023-05-17T23:43:54.668Z,2.55
2023-05-17T23:45:59.473Z,2.42
2023-05-17T23:48:04.239Z,2.72
2023-05-17T23:50:09.977Z,2.47
2023-05-17T23:52:15.802Z,2.58
2023-05-17T23:54:20.316Z,2.17
2023-05-17T23:56:26.926Z,2.50
2023-05-17T23:58:31.749Z,2.67
